OMFJ/FJR METAR and TAF weather

Enter ICAO airport designator
Station Type Date Time Source
OMFJ METAR 2021/07/27 20:00 UTC NOAA

OMFJ 272000Z 03004KT 7000 NSC 35/31 Q0992 A2931


Station Type Date Time Source
OMFJ Decoded METAR 2021/07/27 20:00 UTC NOAA

Fujairah, United Arab Emirates (OMFJ) 25-06N 056-20E 28M
Jul 27, 2021 - 04:00 PM EDT / 2021.07.27 2000 UTC
Wind: from the NNE (030 degrees) at 5 MPH (4 KT):0
Visibility: 4 mile(s):0
Temperature: 95 F (35 C)
Heat index: 132.6 F (55.9 C):1
Dew Point: 87 F (31 C)
Relative Humidity: 79%
Pressure (altimeter): 29.31 in. Hg (992 hPa)
ob: OMFJ 272000Z 03004KT 7000 NSC 35/31 Q0992 A2931
cycle: 20

Station Type Date Time Source
OMFJ TAF 2021/07/27 18:06 UTC NOAA

TAF TAF OMFJ 271700Z 2718/2824 29010KT 7000 NSC
BECMG 2723/2801 35005KT
BECMG 2806/2808 09008KT
BECMG 2814/2816 15005KT
BECMG 2820/2822 29008KT

Example: see airport list